createdAt,value
2019-03-26T00:00:34.613Z,8.90
2019-03-26T00:03:03.103Z,8.90
2019-03-26T00:05:31.829Z,8.80
2019-03-26T00:08:00.236Z,8.80
2019-03-26T00:10:28.646Z,8.80
2019-03-26T00:12:57.131Z,8.80
2019-03-26T00:15:25.558Z,8.80
2019-03-26T00:17:53.968Z,8.80
2019-03-26T00:20:22.467Z,8.80
2019-03-26T00:22:50.888Z,8.70
2019-03-26T00:25:19.406Z,8.70
2019-03-26T00:27:47.895Z,8.70
2019-03-26T00:30:16.642Z,8.70
2019-03-26T00:32:45.103Z,8.70
2019-03-26T00:35:13.708Z,8.70
2019-03-26T00:37:42.116Z,8.60
2019-03-26T00:40:10.890Z,8.60
2019-03-26T00:42:39.298Z,8.60
2019-03-26T00:45:07.818Z,8.60
2019-03-26T00:47:36.243Z,8.60
2019-03-26T00:50:06.500Z,8.60
2019-03-26T00:52:34.973Z,8.50
2019-03-26T00:55:04.778Z,8.50
2019-03-26T00:57:33.499Z,8.50
2019-03-26T01:00:02.870Z,8.50
2019-03-26T01:02:31.291Z,8.50
2019-03-26T01:04:59.707Z,8.50
2019-03-26T01:07:28.123Z,8.60
2019-03-26T01:09:56.536Z,8.60
2019-03-26T01:12:25.085Z,8.60
2019-03-26T01:14:53.497Z,8.60
2019-03-26T01:17:21.920Z,8.60
2019-03-26T01:19:50.337Z,8.60
2019-03-26T01:22:18.774Z,8.60
2019-03-26T01:24:47.192Z,8.60
2019-03-26T01:27:15.622Z,8.60
2019-03-26T01:29:44.115Z,8.60
2019-03-26T01:32:12.593Z,8.60
2019-03-26T01:34:46.299Z,8.60
2019-03-26T01:37:11.221Z,8.60
2019-03-26T01:39:39.703Z,8.50
2019-03-26T01:42:08.165Z,8.50
2019-03-26T01:44:36.875Z,8.50
2019-03-26T01:47:05.315Z,8.50
2019-03-26T01:49:34.688Z,8.50
2019-03-26T01:52:03.145Z,8.50
2019-03-26T01:54:31.541Z,8.40
2019-03-26T01:56:59.985Z,8.40
2019-03-26T01:59:28.393Z,8.40
2019-03-26T02:01:56.941Z,8.40
2019-03-26T02:04:25.402Z,8.40
2019-03-26T02:06:53.831Z,8.40
2019-03-26T02:09:23.892Z,8.40
2019-03-26T02:11:52.333Z,8.40
2019-03-26T02:14:20.755Z,8.40
2019-03-26T02:16:49.203Z,8.40
2019-03-26T02:19:17.618Z,8.40
2019-03-26T02:21:46.332Z,8.40
2019-03-26T02:24:14.755Z,8.40
2019-03-26T02:26:43.171Z,8.40
2019-03-26T02:29:11.614Z,8.40
2019-03-26T02:31:40.034Z,8.40
2019-03-26T02:34:08.464Z,8.40
2019-03-26T02:36:36.909Z,8.40
2019-03-26T02:39:07.163Z,8.40
2019-03-26T02:41:37.821Z,8.40
2019-03-26T02:44:05.707Z,8.40
2019-03-26T02:46:34.173Z,8.40
2019-03-26T02:49:02.608Z,8.40
2019-03-26T02:51:31.071Z,8.40
2019-03-26T02:53:59.490Z,8.30
2019-03-26T02:56:27.933Z,8.40
2019-03-26T02:58:56.393Z,8.40
2019-03-26T03:01:25.292Z,8.40
2019-03-26T03:03:53.719Z,8.40
2019-03-26T03:06:22.159Z,8.40
2019-03-26T03:08:51.238Z,8.40
2019-03-26T03:11:19.818Z,8.40
2019-03-26T03:13:48.463Z,8.40
2019-03-26T03:16:16.891Z,8.40
2019-03-26T03:18:45.316Z,8.30
2019-03-26T03:21:13.721Z,8.30
2019-03-26T03:23:42.174Z,8.30
2019-03-26T03:26:11.505Z,8.30
2019-03-26T03:28:40.317Z,8.30
2019-03-26T03:31:08.835Z,8.30
2019-03-26T03:33:37.333Z,8.30
2019-03-26T03:36:05.795Z,8.30
2019-03-26T03:38:34.306Z,8.30
2019-03-26T03:41:02.812Z,8.30
2019-03-26T03:43:31.487Z,8.30
2019-03-26T03:46:00.182Z,8.30
2019-03-26T03:48:29.405Z,8.30
2019-03-26T03:50:59.349Z,8.30
2019-03-26T03:53:28.327Z,8.30
2019-03-26T03:55:58.615Z,8.30
2019-03-26T03:58:28.824Z,8.20
2019-03-26T04:00:57.325Z,8.20
2019-03-26T04:03:25.847Z,8.20
2019-03-26T04:06:08.183Z,8.20
2019-03-26T04:08:24.816Z,8.20
2019-03-26T04:10:53.287Z,8.20
2019-03-26T04:13:21.705Z,8.20
2019-03-26T04:15:50.107Z,8.10
2019-03-26T04:18:18.653Z,8.20
2019-03-26T04:20:47.055Z,8.10
2019-03-26T04:23:15.465Z,8.20
2019-03-26T04:25:43.874Z,8.20
2019-03-26T04:28:12.323Z,8.10
2019-03-26T04:30:40.807Z,8.10
2019-03-26T04:33:09.716Z,8.20
2019-03-26T04:35:38.141Z,8.10
2019-03-26T04:38:06.957Z,8.10
2019-03-26T04:40:35.364Z,8.10
2019-03-26T04:43:03.800Z,8.10
2019-03-26T04:45:32.246Z,8.10
2019-03-26T04:48:00.661Z,8.10
2019-03-26T04:50:29.093Z,8.10
2019-03-26T04:52:57.570Z,8.10
2019-03-26T04:55:26.006Z,8.10
2019-03-26T04:57:54.430Z,8.10
2019-03-26T05:00:22.907Z,8.10
2019-03-26T05:02:51.333Z,8.10
2019-03-26T05:05:19.759Z,8.10
2019-03-26T05:07:48.245Z,8.10
2019-03-26T05:10:16.726Z,8.10
2019-03-26T05:12:45.158Z,8.10
2019-03-26T05:15:14.073Z,8.10
2019-03-26T05:17:42.487Z,8.10
2019-03-26T05:20:10.903Z,8.10
2019-03-26T05:22:39.331Z,8.10
2019-03-26T05:25:08.037Z,8.10
2019-03-26T05:27:45.459Z,8.10
2019-03-26T05:30:08.708Z,8.20
2019-03-26T05:32:37.218Z,8.20
2019-03-26T05:35:05.992Z,8.20
2019-03-26T05:37:34.442Z,8.20
2019-03-26T05:40:03.138Z,8.20
2019-03-26T05:42:31.570Z,8.20
2019-03-26T05:44:59.994Z,8.20
2019-03-26T05:47:28.421Z,8.20
2019-03-26T05:49:56.849Z,8.20
2019-03-26T05:52:25.434Z,8.30
2019-03-26T05:54:53.874Z,8.30
2019-03-26T05:57:22.289Z,8.30
2019-03-26T05:59:50.747Z,8.30
2019-03-26T06:02:19.176Z,8.30
2019-03-26T06:04:47.606Z,8.30
2019-03-26T06:07:16.070Z,8.30
2019-03-26T06:09:44.535Z,8.30
2019-03-26T06:12:13.025Z,8.30
2019-03-26T06:14:41.460Z,8.30
2019-03-26T06:17:09.859Z,8.30
2019-03-26T06:19:38.301Z,8.30
2019-03-26T06:22:06.733Z,8.30
2019-03-26T06:24:35.205Z,8.30
2019-03-26T06:27:03.630Z,8.30
2019-03-26T06:29:32.054Z,8.30
2019-03-26T06:32:00.718Z,8.30
2019-03-26T06:34:29.169Z,8.30
2019-03-26T06:36:57.657Z,8.30
2019-03-26T06:39:26.078Z,8.30
2019-03-26T06:41:54.559Z,8.30
2019-03-26T06:44:23.000Z,8.30
2019-03-26T06:46:51.418Z,8.30
2019-03-26T06:49:19.858Z,8.30
2019-03-26T06:51:48.563Z,8.30
2019-03-26T06:54:17.007Z,8.30
2019-03-26T06:56:45.477Z,8.40
2019-03-26T06:59:13.881Z,8.40
2019-03-26T07:01:42.521Z,8.40
2019-03-26T07:04:10.973Z,8.40
2019-03-26T07:06:39.394Z,8.50
2019-03-26T07:09:07.969Z,8.50
2019-03-26T07:11:36.660Z,8.60
2019-03-26T07:14:05.082Z,8.70
2019-03-26T07:16:33.514Z,8.70
2019-03-26T07:19:01.927Z,8.70
2019-03-26T07:21:30.350Z,8.80
2019-03-26T07:23:58.757Z,8.80
2019-03-26T07:26:27.238Z,8.90
2019-03-26T07:28:56.904Z,8.90
2019-03-26T07:31:25.574Z,8.90
2019-03-26T07:33:53.979Z,9.00
2019-03-26T07:36:22.415Z,9.10
2019-03-26T07:38:50.839Z,9.10
2019-03-26T07:41:19.277Z,9.20
2019-03-26T07:43:48.609Z,9.20
2019-03-26T07:46:17.074Z,9.20
2019-03-26T07:48:45.557Z,9.20
2019-03-26T07:51:13.963Z,9.30
2019-03-26T07:53:43.360Z,9.30
2019-03-26T07:56:12.641Z,9.30
2019-03-26T07:58:41.085Z,9.30
2019-03-26T08:01:09.516Z,9.40
2019-03-26T08:03:38.201Z,9.40
2019-03-26T08:06:06.605Z,9.40
2019-03-26T08:08:35.399Z,9.50
2019-03-26T08:11:03.919Z,9.50
2019-03-26T08:13:32.904Z,9.60
2019-03-26T08:16:01.375Z,9.70
2019-03-26T08:18:29.797Z,9.70
2019-03-26T08:20:58.223Z,9.70
2019-03-26T08:23:26.657Z,9.70
2019-03-26T08:25:55.122Z,9.70
2019-03-26T08:28:23.638Z,9.70
2019-03-26T08:30:52.051Z,9.80
2019-03-26T08:33:23.333Z,9.80
2019-03-26T08:35:50.679Z,9.90
2019-03-26T08:38:19.133Z,10.10
2019-03-26T08:40:47.568Z,10.40
2019-03-26T08:43:16.015Z,10.70
2019-03-26T08:45:44.435Z,11.00
2019-03-26T08:48:12.991Z,11.30
2019-03-26T08:50:41.421Z,11.60
2019-03-26T08:53:10.145Z,11.90
2019-03-26T08:55:38.578Z,12.30
2019-03-26T08:58:07.004Z,12.80
2019-03-26T09:00:35.427Z,13.40
2019-03-26T09:03:03.901Z,14.00
2019-03-26T09:05:32.303Z,14.60
2019-03-26T09:08:02.223Z,15.10
2019-03-26T09:10:30.636Z,15.50
2019-03-26T09:13:02.395Z,15.70
2019-03-26T09:15:30.868Z,15.80
2019-03-26T09:17:59.291Z,15.90
2019-03-26T09:20:27.727Z,15.80
2019-03-26T09:22:56.125Z,16.00
2019-03-26T09:25:24.631Z,16.20
2019-03-26T09:27:53.087Z,16.60
2019-03-26T09:30:21.510Z,16.90
2019-03-26T09:32:49.939Z,16.90
2019-03-26T09:35:18.401Z,16.80
2019-03-26T09:37:46.822Z,16.50
2019-03-26T09:40:15.389Z,16.20
2019-03-26T09:42:43.801Z,15.80
2019-03-26T09:45:12.660Z,15.40
2019-03-26T09:47:41.123Z,15.00
2019-03-26T09:50:13.214Z,14.70
2019-03-26T09:52:41.647Z,14.50
2019-03-26T09:55:10.637Z,14.30
2019-03-26T09:57:39.151Z,14.20
2019-03-26T10:00:12.325Z,14.10
2019-03-26T10:02:43.138Z,13.90
2019-03-26T10:05:11.173Z,13.80
2019-03-26T10:07:39.601Z,13.60
2019-03-26T10:10:08.651Z,13.50
2019-03-26T10:12:37.312Z,13.50
2019-03-26T10:15:07.250Z,13.50
2019-03-26T10:17:36.027Z,13.40
2019-03-26T10:20:06.767Z,13.20
2019-03-26T10:22:36.759Z,13.10
2019-03-26T10:25:10.474Z,12.90
2019-03-26T10:27:37.436Z,12.80
2019-03-26T10:30:08.301Z,12.60
2019-03-26T10:32:36.989Z,12.40
2019-03-26T10:35:06.727Z,12.20
2019-03-26T10:37:35.245Z,12.00
2019-03-26T10:40:05.698Z,11.90
2019-03-26T10:42:34.119Z,11.70
2019-03-26T10:45:02.629Z,11.60
2019-03-26T10:47:31.211Z,11.50
2019-03-26T10:49:59.652Z,11.40
2019-03-26T10:52:30.794Z,11.30
2019-03-26T10:54:58.234Z,11.30
2019-03-26T10:57:26.731Z,11.20
2019-03-26T10:59:55.203Z,11.20
2019-03-26T11:02:23.646Z,11.10
2019-03-26T11:04:52.120Z,11.00
2019-03-26T11:07:21.929Z,11.00
2019-03-26T11:09:50.408Z,10.90
2019-03-26T11:12:18.815Z,10.90
2019-03-26T11:14:47.342Z,10.80
2019-03-26T11:17:15.758Z,10.80
2019-03-26T11:19:46.389Z,10.70
2019-03-26T11:22:14.502Z,10.70
2019-03-26T11:24:43.000Z,10.80
2019-03-26T11:27:11.456Z,10.80
2019-03-26T11:29:40.022Z,10.90
2019-03-26T11:32:08.734Z,10.90
2019-03-26T11:34:37.276Z,11.00
2019-03-26T11:37:05.762Z,11.00
2019-03-26T11:39:34.176Z,11.00
2019-03-26T11:42:03.087Z,11.10
2019-03-26T11:44:31.600Z,11.10
2019-03-26T11:47:00.092Z,11.10
2019-03-26T11:49:28.500Z,11.10
2019-03-26T11:51:57.003Z,11.20
2019-03-26T11:54:25.575Z,11.30
2019-03-26T11:56:54.056Z,11.40
2019-03-26T11:59:22.500Z,11.60
2019-03-26T12:01:52.443Z,11.80
2019-03-26T12:04:21.276Z,12.00
2019-03-26T12:06:49.923Z,12.10
2019-03-26T12:09:18.378Z,12.20
2019-03-26T12:11:46.860Z,12.30
2019-03-26T12:14:15.284Z,12.30
2019-03-26T12:16:43.745Z,12.40
2019-03-26T12:19:12.169Z,12.30
2019-03-26T12:21:40.584Z,12.30
2019-03-26T12:24:09.024Z,12.30
2019-03-26T12:26:37.552Z,12.40
2019-03-26T12:29:06.962Z,12.40
2019-03-26T12:31:35.438Z,12.60
2019-03-26T12:34:04.008Z,13.00
2019-03-26T12:36:39.954Z,13.40
2019-03-26T12:39:02.637Z,13.80
2019-03-26T12:41:31.240Z,14.10
2019-03-26T12:43:59.677Z,14.40
2019-03-26T12:46:28.083Z,14.60
2019-03-26T12:48:56.583Z,14.80
2019-03-26T12:51:25.229Z,15.00
2019-03-26T12:53:53.935Z,15.00
2019-03-26T12:56:22.354Z,14.90
2019-03-26T12:58:51.712Z,14.70
2019-03-26T13:01:20.492Z,14.50
2019-03-26T13:03:48.922Z,14.20
2019-03-26T13:06:17.365Z,13.80
2019-03-26T13:08:46.143Z,13.60
2019-03-26T13:11:17.062Z,13.20
2019-03-26T13:13:45.623Z,13.00
2019-03-26T13:16:14.042Z,12.70
2019-03-26T13:18:42.498Z,12.50
2019-03-26T13:21:10.909Z,12.20
2019-03-26T13:23:40.065Z,12.10
2019-03-26T13:26:08.477Z,11.90
2019-03-26T13:28:37.230Z,11.80
2019-03-26T13:31:05.669Z,11.70
2019-03-26T13:33:34.100Z,11.60
2019-03-26T13:36:02.806Z,11.50
2019-03-26T13:38:31.277Z,11.50
2019-03-26T13:40:59.858Z,11.50
2019-03-26T13:43:28.295Z,11.60
2019-03-26T13:45:56.707Z,11.60
2019-03-26T13:48:25.118Z,11.70
2019-03-26T13:50:53.550Z,11.80
2019-03-26T13:53:22.254Z,11.90
2019-03-26T13:55:50.680Z,11.90
2019-03-26T13:58:19.095Z,11.90
2019-03-26T14:00:56.232Z,11.90
2019-03-26T14:03:24.702Z,12.00
2019-03-26T14:05:53.192Z,11.90
2019-03-26T14:08:21.616Z,11.90
2019-03-26T14:10:50.109Z,11.90
2019-03-26T14:13:18.532Z,11.90
2019-03-26T14:15:46.989Z,11.90
2019-03-26T14:18:15.432Z,11.90
2019-03-26T14:20:43.854Z,11.90
2019-03-26T14:23:12.265Z,11.90
2019-03-26T14:25:40.970Z,11.90
2019-03-26T14:28:09.397Z,12.00
2019-03-26T14:30:39.982Z,12.00
2019-03-26T14:33:09.425Z,12.00
2019-03-26T14:35:38.297Z,12.00
2019-03-26T14:38:06.838Z,12.10
2019-03-26T14:40:35.403Z,12.00
2019-03-26T14:43:04.189Z,12.00
2019-03-26T14:45:32.760Z,11.90
2019-03-26T14:48:01.215Z,11.90
2019-03-26T14:50:30.024Z,11.80
2019-03-26T14:52:58.407Z,11.80
2019-03-26T14:55:26.866Z,11.70
2019-03-26T14:57:55.374Z,11.60
2019-03-26T15:00:23.800Z,11.60
2019-03-26T15:02:52.234Z,11.50
2019-03-26T15:05:20.711Z,11.50
2019-03-26T15:07:49.139Z,11.50
2019-03-26T15:10:18.064Z,11.40
2019-03-26T15:12:46.774Z,11.40
2019-03-26T15:15:15.423Z,11.40
2019-03-26T15:17:43.852Z,11.30
2019-03-26T15:20:12.528Z,11.30
2019-03-26T15:22:48.275Z,11.30
2019-03-26T15:25:23.253Z,11.30
2019-03-26T15:27:51.765Z,11.30
2019-03-26T15:30:26.690Z,11.30
2019-03-26T15:32:55.260Z,11.30
2019-03-26T15:35:30.529Z,11.30
2019-03-26T15:38:00.800Z,11.40
2019-03-26T15:40:32.558Z,11.40
2019-03-26T15:43:01.043Z,11.40
2019-03-26T15:45:29.596Z,11.40
2019-03-26T15:47:58.113Z,11.50
2019-03-26T15:50:40.665Z,11.50
2019-03-26T15:53:09.311Z,11.50
2019-03-26T15:55:38.067Z,11.60
2019-03-26T15:58:06.514Z,11.60
2019-03-26T16:00:35.033Z,11.60
2019-03-26T16:03:06.529Z,11.60
2019-03-26T16:05:35.167Z,11.70
2019-03-26T16:08:03.673Z,11.70
2019-03-26T16:10:32.102Z,11.70
2019-03-26T16:13:00.643Z,11.70
2019-03-26T16:15:29.112Z,11.70
2019-03-26T16:17:57.676Z,11.70
2019-03-26T16:20:26.125Z,11.70
2019-03-26T16:22:54.548Z,11.60
2019-03-26T16:25:22.957Z,11.60
2019-03-26T16:27:51.397Z,11.50
2019-03-26T16:30:19.845Z,11.50
2019-03-26T16:32:48.251Z,11.50
2019-03-26T16:35:16.695Z,11.40
2019-03-26T16:37:45.141Z,11.40
2019-03-26T16:40:13.660Z,11.40
2019-03-26T16:42:42.088Z,11.40
2019-03-26T16:45:10.701Z,11.40
2019-03-26T16:47:39.112Z,11.30
2019-03-26T16:50:08.091Z,11.30
2019-03-26T16:52:43.153Z,11.30
2019-03-26T16:55:11.698Z,11.30
2019-03-26T16:57:41.917Z,11.20
2019-03-26T17:00:11.827Z,11.20
2019-03-26T17:02:40.252Z,11.20
2019-03-26T17:05:08.958Z,11.20
2019-03-26T17:07:37.420Z,11.20
2019-03-26T17:10:07.536Z,11.10
2019-03-26T17:12:35.941Z,11.10
2019-03-26T17:18:19.093Z,11.10
2019-03-26T17:20:47.556Z,11.10
2019-03-26T17:23:16.637Z,11.00
2019-03-26T17:25:45.169Z,11.00
2019-03-26T17:28:13.660Z,11.00
2019-03-26T17:30:42.103Z,11.00
2019-03-26T17:33:10.853Z,10.90
2019-03-26T17:35:40.221Z,10.90
2019-03-26T17:38:08.682Z,10.90
2019-03-26T17:40:37.271Z,10.90
2019-03-26T17:43:05.903Z,10.90
2019-03-26T17:45:34.333Z,10.90
2019-03-26T17:48:02.773Z,10.90
2019-03-26T17:50:31.207Z,10.90
2019-03-26T17:53:00.931Z,10.90
2019-03-26T17:55:29.399Z,10.80
2019-03-26T17:57:58.086Z,10.80
2019-03-26T18:00:37.792Z,10.80
2019-03-26T18:03:06.196Z,10.80
2019-03-26T18:05:34.707Z,10.80
2019-03-26T18:08:03.184Z,10.70
2019-03-26T18:10:31.657Z,10.70
2019-03-26T18:13:00.271Z,10.70
2019-03-26T18:15:33.454Z,10.70
2019-03-26T18:18:02.821Z,10.70
2019-03-26T18:20:32.853Z,10.70
2019-03-26T18:23:01.548Z,10.60
2019-03-26T18:25:29.961Z,10.60
2019-03-26T18:27:58.411Z,10.70
2019-03-26T18:30:26.915Z,10.60
2019-03-26T18:32:55.471Z,10.60
2019-03-26T18:35:23.978Z,10.60
2019-03-26T18:37:53.334Z,10.60
2019-03-26T18:40:21.758Z,10.60
2019-03-26T18:42:50.184Z,10.50
2019-03-26T18:45:18.697Z,10.50
2019-03-26T18:47:47.119Z,10.50
2019-03-26T18:50:16.202Z,10.50
2019-03-26T18:52:44.663Z,10.50
2019-03-26T18:55:15.092Z,10.50
2019-03-26T18:57:43.570Z,10.50
2019-03-26T19:00:15.328Z,10.50
2019-03-26T19:02:43.920Z,10.50
2019-03-26T19:05:14.029Z,10.50
2019-03-26T19:07:42.919Z,10.50
2019-03-26T19:10:23.573Z,10.50
2019-03-26T19:12:57.193Z,10.50
2019-03-26T19:15:22.269Z,10.50
2019-03-26T19:17:50.754Z,10.50
2019-03-26T19:20:19.203Z,10.50
2019-03-26T19:22:47.646Z,10.50
2019-03-26T19:25:16.163Z,10.50
2019-03-26T19:27:44.647Z,10.50
2019-03-26T19:30:13.610Z,10.50
2019-03-26T19:32:42.099Z,10.40
2019-03-26T19:35:10.596Z,10.40
2019-03-26T19:37:39.114Z,10.40
2019-03-26T19:40:08.143Z,10.40
2019-03-26T19:42:36.569Z,10.40
2019-03-26T19:45:05.525Z,10.40
2019-03-26T19:47:33.954Z,10.40
2019-03-26T19:50:02.945Z,10.40
2019-03-26T19:52:33.241Z,10.40
2019-03-26T19:55:01.680Z,10.40
2019-03-26T19:57:30.110Z,10.40
2019-03-26T19:59:58.601Z,10.40
2019-03-26T20:02:27.135Z,10.40
2019-03-26T20:04:55.645Z,10.40
2019-03-26T20:07:24.253Z,10.40
2019-03-26T20:09:53.080Z,10.40
2019-03-26T20:12:22.236Z,10.40
2019-03-26T20:14:50.725Z,10.40
2019-03-26T20:17:19.966Z,10.40
2019-03-26T20:19:48.698Z,10.40
2019-03-26T20:22:17.422Z,10.40
2019-03-26T20:24:46.151Z,10.30
2019-03-26T20:27:14.725Z,10.40
2019-03-26T20:29:44.308Z,10.30
2019-03-26T20:32:12.816Z,10.30
2019-03-26T20:34:44.505Z,10.30
2019-03-26T20:37:13.101Z,10.30
2019-03-26T20:39:41.615Z,10.30
2019-03-26T20:42:10.054Z,10.30
2019-03-26T20:44:43.910Z,10.30
2019-03-26T20:47:13.316Z,10.30
2019-03-26T20:49:50.484Z,10.30
2019-03-26T20:52:19.230Z,10.30
2019-03-26T20:54:47.675Z,10.30
2019-03-26T20:57:16.294Z,10.20
2019-03-26T20:59:44.776Z,10.20
2019-03-26T21:02:13.421Z,10.20
2019-03-26T21:04:41.993Z,10.20
2019-03-26T21:07:10.541Z,10.20
2019-03-26T21:09:39.030Z,10.20
2019-03-26T21:12:07.511Z,10.20
2019-03-26T21:14:35.997Z,10.20
2019-03-26T21:17:04.562Z,10.10
2019-03-26T21:19:33.175Z,10.10
2019-03-26T21:22:01.662Z,10.10
2019-03-26T21:24:30.110Z,10.10
2019-03-26T21:26:58.602Z,10.10
2019-03-26T21:29:27.075Z,10.10
2019-03-26T21:31:55.805Z,10.10
2019-03-26T21:34:30.466Z,10.10
2019-03-26T21:36:54.406Z,10.10
2019-03-26T21:39:23.202Z,10.10
2019-03-26T21:41:51.772Z,10.10
2019-03-26T21:44:21.605Z,10.10
2019-03-26T21:46:50.888Z,10.10
2019-03-26T21:49:19.342Z,10.10
2019-03-26T21:51:47.935Z,10.10
2019-03-26T21:54:16.945Z,10.00
2019-03-26T21:56:45.497Z,10.10
2019-03-26T21:59:14.426Z,10.10
2019-03-26T22:01:43.315Z,10.10
2019-03-26T22:04:12.931Z,10.10
2019-03-26T22:06:41.711Z,10.10
2019-03-26T22:09:10.581Z,10.10
2019-03-26T22:11:49.288Z,10.20
2019-03-26T22:14:17.953Z,10.20
2019-03-26T22:16:39.482Z,10.20
2019-03-26T22:19:10.359Z,10.20
2019-03-26T22:21:38.956Z,10.20
2019-03-26T22:24:07.541Z,10.20
2019-03-26T22:26:35.966Z,10.10
2019-03-26T22:29:04.377Z,10.10
2019-03-26T22:31:32.804Z,10.10
2019-03-26T22:34:01.241Z,10.10
2019-03-26T22:36:29.710Z,10.10
2019-03-26T22:38:58.142Z,10.00
2019-03-26T22:41:26.747Z,10.00
2019-03-26T22:43:55.356Z,10.00
2019-03-26T22:46:23.949Z,10.00
2019-03-26T22:48:52.469Z,10.00
2019-03-26T22:51:20.993Z,9.90
2019-03-26T22:53:49.402Z,9.90
2019-03-26T22:56:18.231Z,9.90
2019-03-26T22:58:46.666Z,9.90
2019-03-26T23:01:15.246Z,9.80
2019-03-26T23:03:43.695Z,9.80
2019-03-26T23:06:12.204Z,9.80
2019-03-26T23:08:41.235Z,9.70
2019-03-26T23:11:09.646Z,9.70
2019-03-26T23:13:38.171Z,9.70
2019-03-26T23:16:06.702Z,9.70
2019-03-26T23:18:35.171Z,9.70
2019-03-26T23:21:04.212Z,9.70
2019-03-26T23:23:32.688Z,9.70
2019-03-26T23:26:01.118Z,9.60
2019-03-26T23:28:29.506Z,9.60
2019-03-26T23:30:57.942Z,9.60
2019-03-26T23:33:26.431Z,9.60
2019-03-26T23:35:54.982Z,9.60
2019-03-26T23:38:23.430Z,9.50
2019-03-26T23:40:51.841Z,9.50
2019-03-26T23:43:20.280Z,9.50
2019-03-26T23:45:48.706Z,9.50
2019-03-26T23:48:17.152Z,9.50
2019-03-26T23:50:45.565Z,9.50
2019-03-26T23:53:14.337Z,9.50
2019-03-26T23:55:42.802Z,9.50
2019-03-26T23:58:30.544Z,9.50
